sensor_id;sensor_type;location;lat;lon;timestamp;pressure;altitude;pressure_sealevel;temperature
19061;BMP280;9663;48.996;8.334;2022-10-30T00:00:41;100641.84;;;19.41
19061;BMP280;9663;48.996;8.334;2022-10-30T00:03:14;100631.56;;;19.41
19061;BMP280;9663;48.996;8.334;2022-10-30T00:05:47;100633.22;;;19.42
19061;BMP280;9663;48.996;8.334;2022-10-30T00:08:17;100624.63;;;19.43
19061;BMP280;9663;48.996;8.334;2022-10-30T00:10:44;100630.50;;;19.47
19061;BMP280;9663;48.996;8.334;2022-10-30T00:13:11;100627.88;;;19.48
19061;BMP280;9663;48.996;8.334;2022-10-30T00:15:37;100622.69;;;19.50
19061;BMP280;9663;48.996;8.334;2022-10-30T00:18:03;100627.72;;;19.53
19061;BMP280;9663;48.996;8.334;2022-10-30T00:20:28;100626.88;;;19.52
19061;BMP280;9663;48.996;8.334;2022-10-30T00:22:54;100628.56;;;19.53
19061;BMP280;9663;48.996;8.334;2022-10-30T00:25:20;100629.34;;;19.55
19061;BMP280;9663;48.996;8.334;2022-10-30T00:27:46;100632.78;;;19.56
19061;BMP280;9663;48.996;8.334;2022-10-30T00:30:12;100632.69;;;19.57
19061;BMP280;9663;48.996;8.334;2022-10-30T00:32:40;100627.53;;;19.57
19061;BMP280;9663;48.996;8.334;2022-10-30T00:35:08;100633.59;;;19.56
19061;BMP280;9663;48.996;8.334;2022-10-30T00:37:34;100633.66;;;19.55
19061;BMP280;9663;48.996;8.334;2022-10-30T00:40:00;100633.69;;;19.53
19061;BMP280;9663;48.996;8.334;2022-10-30T00:42:29;100633.84;;;19.49
19061;BMP280;9663;48.996;8.334;2022-10-30T00:44:55;100634.91;;;19.43
19061;BMP280;9663;48.996;8.334;2022-10-30T00:47:35;100630.78;;;19.39
19061;BMP280;9663;48.996;8.334;2022-10-30T00:52:43;100618.88;;;19.35
19061;BMP280;9663;48.996;8.334;2022-10-30T00:55:18;100614.66;;;19.34
19061;BMP280;9663;48.996;8.334;2022-10-30T00:57:46;100613.75;;;19.35
19061;BMP280;9663;48.996;8.334;2022-10-30T01:00:14;100610.25;;;19.38
19061;BMP280;9663;48.996;8.334;2022-10-30T01:02:42;100609.34;;;19.39
19061;BMP280;9663;48.996;8.334;2022-10-30T01:05:13;100610.97;;;19.41
19061;BMP280;9663;48.996;8.334;2022-10-30T01:07:40;100602.34;;;19.42
19061;BMP280;9663;48.996;8.334;2022-10-30T01:10:07;100603.16;;;19.44
19061;BMP280;9663;48.996;8.334;2022-10-30T01:12:33;100608.25;;;19.46
19061;BMP280;9663;48.996;8.334;2022-10-30T01:14:59;100605.59;;;19.47
19061;BMP280;9663;48.996;8.334;2022-10-30T01:18:06;100597.09;;;19.45
19061;BMP280;9663;48.996;8.334;2022-10-30T01:39:13;100606.09;;;19.34
19061;BMP280;9663;48.996;8.334;2022-10-30T01:41:40;100606.09;;;19.34
19061;BMP280;9663;48.996;8.334;2022-10-30T01:44:13;100598.31;;;19.35
19061;BMP280;9663;48.996;8.334;2022-10-30T01:52:59;100600.31;;;19.27
19061;BMP280;9663;48.996;8.334;2022-10-30T01:58:27;100593.66;;;19.22
19061;BMP280;9663;48.996;8.334;2022-10-30T02:00:57;100591.91;;;19.23
19061;BMP280;9663;48.996;8.334;2022-10-30T02:03:25;100592.03;;;19.20
19061;BMP280;9663;48.996;8.334;2022-10-30T02:05:53;100593.75;;;19.19
19061;BMP280;9663;48.996;8.334;2022-10-30T02:08:21;100592.06;;;19.18
19061;BMP280;9663;48.996;8.334;2022-10-30T02:10:50;100593.00;;;19.16
19061;BMP280;9663;48.996;8.334;2022-10-30T02:13:16;100592.22;;;19.14
19061;BMP280;9663;48.996;8.334;2022-10-30T02:15:43;100599.22;;;19.10
19061;BMP280;9663;48.996;8.334;2022-10-30T02:18:10;100597.59;;;19.06
19061;BMP280;9663;48.996;8.334;2022-10-30T02:20:36;100600.34;;;19.02
19061;BMP280;9663;48.996;8.334;2022-10-30T02:23:03;100603.84;;;18.98
19061;BMP280;9663;48.996;8.334;2022-10-30T02:25:28;100595.50;;;18.91
19061;BMP280;9663;48.996;8.334;2022-10-30T02:27:54;100593.19;;;18.84
19061;BMP280;9663;48.996;8.334;2022-10-30T02:30:20;100599.44;;;18.77
19061;BMP280;9663;48.996;8.334;2022-10-30T02:32:46;100580.91;;;18.68
19061;BMP280;9663;48.996;8.334;2022-10-30T02:35:12;100581.94;;;18.62
19061;BMP280;9663;48.996;8.334;2022-10-30T02:37:37;100582.94;;;18.57
19061;BMP280;9663;48.996;8.334;2022-10-30T02:40:05;100588.22;;;18.52
19061;BMP280;9663;48.996;8.334;2022-10-30T02:42:33;100585.78;;;18.49
19061;BMP280;9663;48.996;8.334;2022-10-30T02:44:59;100596.19;;;18.45
19061;BMP280;9663;48.996;8.334;2022-10-30T02:47:27;100595.53;;;18.39
19061;BMP280;9663;48.996;8.334;2022-10-30T02:49:53;100594.00;;;18.33
19061;BMP280;9663;48.996;8.334;2022-10-30T02:52:18;100592.47;;;18.26
19061;BMP280;9663;48.996;8.334;2022-10-30T02:54:44;100593.44;;;18.22
19061;BMP280;9663;48.996;8.334;2022-10-30T02:57:10;100597.88;;;18.17
19061;BMP280;9663;48.996;8.334;2022-10-30T02:59:35;100591.22;;;18.12
19061;BMP280;9663;48.996;8.334;2022-10-30T03:02:01;100597.31;;;18.06
19061;BMP280;9663;48.996;8.334;2022-10-30T03:04:27;100600.03;;;18.02
19061;BMP280;9663;48.996;8.334;2022-10-30T03:06:53;100602.84;;;17.93
19061;BMP280;9663;48.996;8.334;2022-10-30T03:09:18;100593.56;;;17.89
19061;BMP280;9663;48.996;8.334;2022-10-30T03:11:44;100598.78;;;17.86
19061;BMP280;9663;48.996;8.334;2022-10-30T03:14:10;100603.94;;;17.85
19061;BMP280;9663;48.996;8.334;2022-10-30T03:16:36;100599.81;;;17.81
19061;BMP280;9663;48.996;8.334;2022-10-30T03:19:03;100598.16;;;17.78
19061;BMP280;9663;48.996;8.334;2022-10-30T03:21:29;100598.19;;;17.77
19061;BMP280;9663;48.996;8.334;2022-10-30T03:23:55;100589.69;;;17.75
19061;BMP280;9663;48.996;8.334;2022-10-30T03:26:21;100594.81;;;17.75
19061;BMP280;9663;48.996;8.334;2022-10-30T03:28:47;100589.69;;;17.75
19061;BMP280;9663;48.996;8.334;2022-10-30T03:31:17;100598.31;;;17.74
19061;BMP280;9663;48.996;8.334;2022-10-30T03:33:44;100598.31;;;17.74
19061;BMP280;9663;48.996;8.334;2022-10-30T03:36:12;100601.72;;;17.73
19061;BMP280;9663;48.996;8.334;2022-10-30T03:38:38;100597.44;;;17.73
19061;BMP280;9663;48.996;8.334;2022-10-30T03:41:05;100602.56;;;17.73
19061;BMP280;9663;48.996;8.334;2022-10-30T03:43:31;100597.50;;;17.70
19061;BMP280;9663;48.996;8.334;2022-10-30T03:45:57;100594.06;;;17.71
19061;BMP280;9663;48.996;8.334;2022-10-30T03:48:26;100594.94;;;17.70
19061;BMP280;9663;48.996;8.334;2022-10-30T03:50:53;100607.72;;;17.72
19061;BMP280;9663;48.996;8.334;2022-10-30T03:53:20;100600.06;;;17.70
19061;BMP280;9663;48.996;8.334;2022-10-30T03:55:49;100600.19;;;17.67
19061;BMP280;9663;48.996;8.334;2022-10-30T03:58:15;100607.06;;;17.65
19061;BMP280;9663;48.996;8.334;2022-10-30T04:00:40;100602.88;;;17.63
19061;BMP280;9663;48.996;8.334;2022-10-30T04:03:08;100598.66;;;17.60
19061;BMP280;9663;48.996;8.334;2022-10-30T04:05:35;100598.69;;;17.59
19061;BMP280;9663;48.996;8.334;2022-10-30T04:08:05;100595.28;;;17.58
19061;BMP280;9663;48.996;8.334;2022-10-30T04:10:33;100594.47;;;17.58
19061;BMP280;9663;48.996;8.334;2022-10-30T04:13:05;100597.91;;;17.57
19061;BMP280;9663;48.996;8.334;2022-10-30T04:15:32;100591.09;;;17.56
19061;BMP280;9663;48.996;8.334;2022-10-30T04:17:58;100588.53;;;17.56
19061;BMP280;9663;48.996;8.334;2022-10-30T04:20:26;100600.50;;;17.55
19061;BMP280;9663;48.996;8.334;2022-10-30T04:23:02;100587.78;;;17.53
19061;BMP280;9663;48.996;8.334;2022-10-30T04:25:29;100593.00;;;17.50
19061;BMP280;9663;48.996;8.334;2022-10-30T04:27:56;100594.75;;;17.48
19061;BMP280;9663;48.996;8.334;2022-10-30T04:30:22;100598.16;;;17.48
19061;BMP280;9663;48.996;8.334;2022-10-30T04:32:58;100593.09;;;17.45
19061;BMP280;9663;48.996;8.334;2022-10-30T04:35:28;100595.69;;;17.44
19061;BMP280;9663;48.996;8.334;2022-10-30T04:37:57;100594.94;;;17.40
19061;BMP280;9663;48.996;8.334;2022-10-30T04:40:26;100601.06;;;17.36
19061;BMP280;9663;48.996;8.334;2022-10-30T04:42:52;100596.94;;;17.29
19061;BMP280;9663;48.996;8.334;2022-10-30T04:45:18;100596.22;;;17.24
19061;BMP280;9663;48.996;8.334;2022-10-30T04:47:45;100603.19;;;17.19
19061;BMP280;9663;48.996;8.334;2022-10-30T04:50:12;100593.88;;;17.15
19061;BMP280;9663;48.996;8.334;2022-10-30T04:52:39;100601.63;;;17.12
19061;BMP280;9663;48.996;8.334;2022-10-30T04:55:06;100588.88;;;17.09
19061;BMP280;9663;48.996;8.334;2022-10-30T04:57:32;100594.94;;;17.07
19061;BMP280;9663;48.996;8.334;2022-10-30T04:59:59;100589.88;;;17.04
19061;BMP280;9663;48.996;8.334;2022-10-30T05:02:25;100582.28;;;17.01
19061;BMP280;9663;48.996;8.334;2022-10-30T05:04:50;100572.97;;;16.99
19061;BMP280;9663;48.996;8.334;2022-10-30T05:07:17;100575.53;;;16.99
19061;BMP280;9663;48.996;8.334;2022-10-30T05:09:43;100578.16;;;16.96
19061;BMP280;9663;48.996;8.334;2022-10-30T05:12:09;100573.91;;;16.95
19061;BMP280;9663;48.996;8.334;2022-10-30T05:14:35;100573.94;;;16.93
19061;BMP280;9663;48.996;8.334;2022-10-30T05:17:01;100569.75;;;16.91
19061;BMP280;9663;48.996;8.334;2022-10-30T05:19:27;100574.91;;;16.89
19061;BMP280;9663;48.996;8.334;2022-10-30T05:21:52;100568.09;;;16.87
19061;BMP280;9663;48.996;8.334;2022-10-30T05:24:18;100579.31;;;16.83
19061;BMP280;9663;48.996;8.334;2022-10-30T05:26:44;100580.28;;;16.79
19061;BMP280;9663;48.996;8.334;2022-10-30T05:29:11;100582.13;;;16.74
19061;BMP280;9663;48.996;8.334;2022-10-30T05:31:37;100576.28;;;16.69
19061;BMP280;9663;48.996;8.334;2022-10-30T05:34:02;100584.91;;;16.64
19061;BMP280;9663;48.996;8.334;2022-10-30T05:36:28;100579.94;;;16.59
19061;BMP280;9663;48.996;8.334;2022-10-30T05:38:54;100586.00;;;16.54
19061;BMP280;9663;48.996;8.334;2022-10-30T05:41:20;100581.84;;;16.50
19061;BMP280;9663;48.996;8.334;2022-10-30T05:43:45;100588.78;;;16.45
19061;BMP280;9663;48.996;8.334;2022-10-30T05:46:11;100602.50;;;16.41
19061;BMP280;9663;48.996;8.334;2022-10-30T05:48:37;100595.81;;;16.35
19061;BMP280;9663;48.996;8.334;2022-10-30T05:51:03;100598.44;;;16.32
19061;BMP280;9663;48.996;8.334;2022-10-30T05:53:31;100602.81;;;16.27
19061;BMP280;9663;48.996;8.334;2022-10-30T05:55:58;100602.06;;;16.24
19061;BMP280;9663;48.996;8.334;2022-10-30T05:58:24;100606.41;;;16.19
19061;BMP280;9663;48.996;8.334;2022-10-30T06:00:51;100603.88;;;16.18
19061;BMP280;9663;48.996;8.334;2022-10-30T06:03:17;100605.63;;;16.16
19061;BMP280;9663;48.996;8.334;2022-10-30T06:05:45;100604.78;;;16.15
19061;BMP280;9663;48.996;8.334;2022-10-30T06:08:12;100606.47;;;16.15
19061;BMP280;9663;48.996;8.334;2022-10-30T06:10:38;100615.88;;;16.14
19061;BMP280;9663;48.996;8.334;2022-10-30T06:13:05;100607.38;;;16.14
19061;BMP280;9663;48.996;8.334;2022-10-30T06:15:32;100619.38;;;16.12
19061;BMP280;9663;48.996;8.334;2022-10-30T06:17:58;100619.31;;;16.13
19061;BMP280;9663;48.996;8.334;2022-10-30T06:20:28;100618.50;;;16.11
19061;BMP280;9663;48.996;8.334;2022-10-30T06:23:04;100616.84;;;16.10
19061;BMP280;9663;48.996;8.334;2022-10-30T06:25:32;100623.63;;;16.11
19061;BMP280;9663;48.996;8.334;2022-10-30T06:27:58;100622.72;;;16.14
19061;BMP280;9663;48.996;8.334;2022-10-30T06:30:25;100621.81;;;16.16
19061;BMP280;9663;48.996;8.334;2022-10-30T06:33:03;100626.88;;;16.19
19061;BMP280;9663;48.996;8.334;2022-10-30T06:35:29;100630.22;;;16.23
19061;BMP280;9663;48.996;8.334;2022-10-30T06:37:56;100632.72;;;16.27
19061;BMP280;9663;48.996;8.334;2022-10-30T06:40:25;100623.28;;;16.29
19061;BMP280;9663;48.996;8.334;2022-10-30T06:42:52;100622.34;;;16.33
19061;BMP280;9663;48.996;8.334;2022-10-30T06:45:20;100624.78;;;16.37
19061;BMP280;9663;48.996;8.334;2022-10-30T06:47:46;100627.25;;;16.42
19061;BMP280;9663;48.996;8.334;2022-10-30T06:50:17;100621.16;;;16.47
19061;BMP280;9663;48.996;8.334;2022-10-30T06:52:43;100623.59;;;16.53
19061;BMP280;9663;48.996;8.334;2022-10-30T06:55:10;100618.34;;;16.59
19061;BMP280;9663;48.996;8.334;2022-10-30T06:57:36;100619.88;;;16.66
19061;BMP280;9663;48.996;8.334;2022-10-30T07:00:05;100626.50;;;16.74
19061;BMP280;9663;48.996;8.334;2022-10-30T07:02:31;100631.44;;;16.82
19061;BMP280;9663;48.996;8.334;2022-10-30T07:04:57;100628.69;;;16.89
19061;BMP280;9663;48.996;8.334;2022-10-30T07:07:22;100627.72;;;16.93
19061;BMP280;9663;48.996;8.334;2022-10-30T07:09:48;100625.03;;;16.99
19061;BMP280;9663;48.996;8.334;2022-10-30T07:12:14;100621.50;;;17.03
19061;BMP280;9663;48.996;8.334;2022-10-30T07:14:40;100627.31;;;17.09
19061;BMP280;9663;48.996;8.334;2022-10-30T07:17:06;100619.50;;;17.15
19061;BMP280;9663;48.996;8.334;2022-10-30T07:19:32;100620.25;;;17.20
19061;BMP280;9663;48.996;8.334;2022-10-30T07:21:59;100618.34;;;17.28
19061;BMP280;9663;48.996;8.334;2022-10-30T07:24:25;100619.81;;;17.37
19061;BMP280;9663;48.996;8.334;2022-10-30T07:26:51;100620.47;;;17.45
19061;BMP280;9663;48.996;8.334;2022-10-30T07:29:16;100621.94;;;17.53
19061;BMP280;9663;48.996;8.334;2022-10-30T07:31:45;100621.69;;;17.62
19061;BMP280;9663;48.996;8.334;2022-10-30T07:34:10;100624.06;;;17.69
19061;BMP280;9663;48.996;8.334;2022-10-30T07:36:36;100631.50;;;17.78
19061;BMP280;9663;48.996;8.334;2022-10-30T07:39:02;100628.69;;;17.87
19061;BMP280;9663;48.996;8.334;2022-10-30T07:41:27;100625.88;;;17.96
19061;BMP280;9663;48.996;8.334;2022-10-30T07:43:53;100634.03;;;18.10
19061;BMP280;9663;48.996;8.334;2022-10-30T07:46:19;100639.66;;;18.22
19061;BMP280;9663;48.996;8.334;2022-10-30T07:48:44;100630.72;;;18.35
19061;BMP280;9663;48.996;8.334;2022-10-30T07:51:10;100642.31;;;18.48
19061;BMP280;9663;48.996;8.334;2022-10-30T07:53:36;100622.22;;;18.60
19061;BMP280;9663;48.996;8.334;2022-10-30T07:56:01;100633.84;;;18.72
19061;BMP280;9663;48.996;8.334;2022-10-30T07:58:27;100635.09;;;18.86
19061;BMP280;9663;48.996;8.334;2022-10-30T08:00:53;100633.88;;;18.97
19061;BMP280;9663;48.996;8.334;2022-10-30T08:03:18;100648.16;;;19.07
19061;BMP280;9663;48.996;8.334;2022-10-30T08:05:44;100640.94;;;19.18
19061;BMP280;9663;48.996;8.334;2022-10-30T08:08:10;100643.09;;;19.30
19061;BMP280;9663;48.996;8.334;2022-10-30T08:10:36;100646.06;;;19.42
19061;BMP280;9663;48.996;8.334;2022-10-30T08:13:02;100647.34;;;19.55
19061;BMP280;9663;48.996;8.334;2022-10-30T08:15:28;100634.81;;;19.70
19061;BMP280;9663;48.996;8.334;2022-10-30T08:17:54;100636.94;;;19.82
19061;BMP280;9663;48.996;8.334;2022-10-30T08:20:23;100645.09;;;19.95
19061;BMP280;9663;48.996;8.334;2022-10-30T08:22:54;100641.13;;;20.09
19061;BMP280;9663;48.996;8.334;2022-10-30T08:25:24;100641.47;;;20.23
19061;BMP280;9663;48.996;8.334;2022-10-30T08:28:03;100643.53;;;20.36
19061;BMP280;9663;48.996;8.334;2022-10-30T08:30:33;100642.94;;;20.51
19061;BMP280;9663;48.996;8.334;2022-10-30T08:33:02;100639.81;;;20.66
19061;BMP280;9663;48.996;8.334;2022-10-30T08:35:28;100640.09;;;20.80
19061;BMP280;9663;48.996;8.334;2022-10-30T08:37:59;100640.41;;;20.94
19061;BMP280;9663;48.996;8.334;2022-10-30T08:40:26;100626.19;;;21.05
19061;BMP280;9663;48.996;8.334;2022-10-30T08:42:53;100624.13;;;21.13
19061;BMP280;9663;48.996;8.334;2022-10-30T08:45:20;100637.41;;;21.24
19061;BMP280;9663;48.996;8.334;2022-10-30T08:47:47;100634.50;;;21.31
19061;BMP280;9663;48.996;8.334;2022-10-30T08:50:13;100635.03;;;21.39
19061;BMP280;9663;48.996;8.334;2022-10-30T08:52:39;100640.53;;;21.51
19061;BMP280;9663;48.996;8.334;2022-10-30T08:55:05;100634.03;;;21.63
19061;BMP280;9663;48.996;8.334;2022-10-30T08:57:35;100639.56;;;21.74
19061;BMP280;9663;48.996;8.334;2022-10-30T09:00:05;100634.69;;;21.86
19061;BMP280;9663;48.996;8.334;2022-10-30T09:02:31;100637.66;;;21.97
19061;BMP280;9663;48.996;8.334;2022-10-30T09:04:57;100630.25;;;22.08
19061;BMP280;9663;48.996;8.334;2022-10-30T09:07:23;100640.09;;;22.20
19061;BMP280;9663;48.996;8.334;2022-10-30T09:09:48;100634.34;;;22.31
19061;BMP280;9663;48.996;8.334;2022-10-30T09:12:14;100632.88;;;22.44
19061;BMP280;9663;48.996;8.334;2022-10-30T09:14:41;100629.66;;;22.58
19061;BMP280;9663;48.996;8.334;2022-10-30T09:17:07;100639.34;;;22.71
19061;BMP280;9663;48.996;8.334;2022-10-30T09:19:33;100637.91;;;22.82
19061;BMP280;9663;48.996;8.334;2022-10-30T09:21:58;100626.31;;;22.91
19061;BMP280;9663;48.996;8.334;2022-10-30T09:24:24;100627.63;;;22.99
19061;BMP280;9663;48.996;8.334;2022-10-30T09:26:50;100627.94;;;23.10
19061;BMP280;9663;48.996;8.334;2022-10-30T09:29:16;100630.13;;;23.17
19061;BMP280;9663;48.996;8.334;2022-10-30T09:31:41;100620.09;;;23.28
19061;BMP280;9663;48.996;8.334;2022-10-30T09:34:07;100621.16;;;23.41
19061;BMP280;9663;48.996;8.334;2022-10-30T09:36:33;100619.72;;;23.53
19061;BMP280;9663;48.996;8.334;2022-10-30T09:38:59;100620.72;;;23.67
19061;BMP280;9663;48.996;8.334;2022-10-30T09:41:44;100624.25;;;23.81
19061;BMP280;9663;48.996;8.334;2022-10-30T09:44:50;100627.13;;;23.92
19061;BMP280;9663;48.996;8.334;2022-10-30T09:50:32;100625.31;;;24.09
19061;BMP280;9663;48.996;8.334;2022-10-30T10:04:32;100618.44;;;24.56
19061;BMP280;9663;48.996;8.334;2022-10-30T10:07:36;100622.50;;;24.60
19061;BMP280;9663;48.996;8.334;2022-10-30T10:10:10;100616.75;;;24.70
19061;BMP280;9663;48.996;8.334;2022-10-30T10:12:49;100618.81;;;24.79
19061;BMP280;9663;48.996;8.334;2022-10-30T10:15:43;100612.19;;;24.89
19061;BMP280;9663;48.996;8.334;2022-10-30T10:18:37;100619.50;;;24.98
19061;BMP280;9663;48.996;8.334;2022-10-30T10:21:27;100617.84;;;25.11
19061;BMP280;9663;48.996;8.334;2022-10-30T10:24:03;100611.88;;;25.24
19061;BMP280;9663;48.996;8.334;2022-10-30T10:26:48;100617.72;;;25.41
19061;BMP280;9663;48.996;8.334;2022-10-30T10:38:56;100616.34;;;25.93
19061;BMP280;9663;48.996;8.334;2022-10-30T10:41:46;100610.47;;;26.03
19061;BMP280;9663;48.996;8.334;2022-10-30T10:50:34;100600.88;;;26.31
19061;BMP280;9663;48.996;8.334;2022-10-30T10:53:43;100594.81;;;26.45
19061;BMP280;9663;48.996;8.334;2022-10-30T10:56:13;100586.28;;;26.69
19061;BMP280;9663;48.996;8.334;2022-10-30T10:58:50;100590.13;;;26.90
19061;BMP280;9663;48.996;8.334;2022-10-30T11:01:37;100592.56;;;27.05
19061;BMP280;9663;48.996;8.334;2022-10-30T11:04:38;100586.53;;;27.17
19061;BMP280;9663;48.996;8.334;2022-10-30T11:07:25;100594.84;;;27.60
19061;BMP280;9663;48.996;8.334;2022-10-30T11:09:56;100582.41;;;28.37
19061;BMP280;9663;48.996;8.334;2022-10-30T11:12:28;100578.34;;;29.36
19061;BMP280;9663;48.996;8.334;2022-10-30T11:14:57;100570.16;;;30.17
19061;BMP280;9663;48.996;8.334;2022-10-30T11:23:40;100562.38;;;30.79
19061;BMP280;9663;48.996;8.334;2022-10-30T11:26:30;100567.44;;;30.40
19061;BMP280;9663;48.996;8.334;2022-10-30T11:29:12;100570.09;;;30.08
19061;BMP280;9663;48.996;8.334;2022-10-30T11:31:43;100579.13;;;29.93
19061;BMP280;9663;48.996;8.334;2022-10-30T11:36:49;100575.88;;;30.22
19061;BMP280;9663;48.996;8.334;2022-10-30T11:39:29;100568.69;;;30.57
19061;BMP280;9663;48.996;8.334;2022-10-30T11:44:37;100566.13;;;31.58
19061;BMP280;9663;48.996;8.334;2022-10-30T11:47:07;100564.84;;;32.02
19061;BMP280;9663;48.996;8.334;2022-10-30T11:49:54;100559.28;;;32.44
19061;BMP280;9663;48.996;8.334;2022-10-30T11:52:24;100555.84;;;33.00
19061;BMP280;9663;48.996;8.334;2022-10-30T11:58:41;100556.19;;;33.88
19061;BMP280;9663;48.996;8.334;2022-10-30T12:03:48;100548.66;;;34.81
19061;BMP280;9663;48.996;8.334;2022-10-30T12:09:21;100532.06;;;35.82
19061;BMP280;9663;48.996;8.334;2022-10-30T12:11:48;100532.63;;;36.17
19061;BMP280;9663;48.996;8.334;2022-10-30T12:14:25;100521.16;;;36.49
19061;BMP280;9663;48.996;8.334;2022-10-30T12:16:54;100529.97;;;36.81
19061;BMP280;9663;48.996;8.334;2022-10-30T12:19:23;100516.75;;;36.81
19061;BMP280;9663;48.996;8.334;2022-10-30T12:21:53;100522.94;;;36.17
19061;BMP280;9663;48.996;8.334;2022-10-30T12:24:31;100527.53;;;35.16
19061;BMP280;9663;48.996;8.334;2022-10-30T12:27:15;100529.72;;;34.16
19061;BMP280;9663;48.996;8.334;2022-10-30T12:30:19;100527.75;;;33.20
19061;BMP280;9663;48.996;8.334;2022-10-30T12:35:35;100517.34;;;32.15
19061;BMP280;9663;48.996;8.334;2022-10-30T12:38:14;100514.97;;;31.63
19061;BMP280;9663;48.996;8.334;2022-10-30T12:41:24;100523.69;;;31.14
19061;BMP280;9663;48.996;8.334;2022-10-30T12:46:44;100519.44;;;30.51
19061;BMP280;9663;48.996;8.334;2022-10-30T12:52:35;100522.91;;;29.87
19061;BMP280;9663;48.996;8.334;2022-10-30T12:55:25;100523.59;;;29.68
19061;BMP280;9663;48.996;8.334;2022-10-30T13:01:05;100513.63;;;29.40
19061;BMP280;9663;48.996;8.334;2022-10-30T13:03:57;100513.41;;;29.32
19061;BMP280;9663;48.996;8.334;2022-10-30T13:06:33;100509.00;;;29.32
19061;BMP280;9663;48.996;8.334;2022-10-30T13:11:51;100508.03;;;29.23
19061;BMP280;9663;48.996;8.334;2022-10-30T13:14:36;100502.94;;;29.21
19061;BMP280;9663;48.996;8.334;2022-10-30T13:17:09;100502.13;;;29.21
19061;BMP280;9663;48.996;8.334;2022-10-30T13:19:35;100501.44;;;29.17
19061;BMP280;9663;48.996;8.334;2022-10-30T13:22:11;100504.22;;;29.16
19061;BMP280;9663;48.996;8.334;2022-10-30T13:30:20;100502.78;;;28.78
19061;BMP280;9663;48.996;8.334;2022-10-30T13:39:00;100494.69;;;28.46
19061;BMP280;9663;48.996;8.334;2022-10-30T13:42:27;100494.22;;;28.41
19061;BMP280;9663;48.996;8.334;2022-10-30T13:47:58;100497.03;;;28.38
19061;BMP280;9663;48.996;8.334;2022-10-30T13:53:12;100504.72;;;28.29
19061;BMP280;9663;48.996;8.334;2022-10-30T13:55:40;100499.00;;;28.24
19061;BMP280;9663;48.996;8.334;2022-10-30T13:58:27;100495.91;;;28.19
19061;BMP280;9663;48.996;8.334;2022-10-30T14:01:11;100501.13;;;28.19
19061;BMP280;9663;48.996;8.334;2022-10-30T14:09:39;100496.75;;;28.07
19061;BMP280;9663;48.996;8.334;2022-10-30T14:15:43;100509.50;;;27.99
19061;BMP280;9663;48.996;8.334;2022-10-30T14:20:48;100510.22;;;28.01
19061;BMP280;9663;48.996;8.334;2022-10-30T14:23:25;100509.59;;;27.98
19061;BMP280;9663;48.996;8.334;2022-10-30T14:28:45;100508.66;;;27.99
19061;BMP280;9663;48.996;8.334;2022-10-30T14:31:16;100505.94;;;28.00
19061;BMP280;9663;48.996;8.334;2022-10-30T14:33:50;100503.13;;;28.03
19061;BMP280;9663;48.996;8.334;2022-10-30T14:42:05;100504.38;;;27.98
19061;BMP280;9663;48.996;8.334;2022-10-30T14:44:55;100505.72;;;28.03
19061;BMP280;9663;48.996;8.334;2022-10-30T14:48:00;100490.41;;;28.11
19061;BMP280;9663;48.996;8.334;2022-10-30T14:51:00;100500.16;;;28.20
19061;BMP280;9663;48.996;8.334;2022-10-30T14:53:55;100492.44;;;28.19
19061;BMP280;9663;48.996;8.334;2022-10-30T14:56:40;100489.13;;;28.17
19061;BMP280;9663;48.996;8.334;2022-10-30T15:07:56;100501.59;;;27.89
19061;BMP280;9663;48.996;8.334;2022-10-30T15:10:33;100508.09;;;27.83
19061;BMP280;9663;48.996;8.334;2022-10-30T15:13:20;100504.88;;;27.67
19061;BMP280;9663;48.996;8.334;2022-10-30T15:16:02;100515.19;;;27.56
19061;BMP280;9663;48.996;8.334;2022-10-30T15:18:30;100505.94;;;27.52
19061;BMP280;9663;48.996;8.334;2022-10-30T15:21:06;100508.09;;;27.46
19061;BMP280;9663;48.996;8.334;2022-10-30T15:23:35;100509.56;;;27.38
19061;BMP280;9663;48.996;8.334;2022-10-30T15:26:07;100506.88;;;27.27
19061;BMP280;9663;48.996;8.334;2022-10-30T15:28:41;100500.81;;;27.14
19061;BMP280;9663;48.996;8.334;2022-10-30T15:31:24;100508.94;;;26.97
19061;BMP280;9663;48.996;8.334;2022-10-30T15:33:51;100507.22;;;26.84
19061;BMP280;9663;48.996;8.334;2022-10-30T15:36:42;100507.41;;;26.68
19061;BMP280;9663;48.996;8.334;2022-10-30T15:39:14;100522.44;;;26.51
19061;BMP280;9663;48.996;8.334;2022-10-30T15:41:54;100517.69;;;26.31
19061;BMP280;9663;48.996;8.334;2022-10-30T15:44:31;100513.63;;;26.14
19061;BMP280;9663;48.996;8.334;2022-10-30T15:47:01;100508.56;;;25.98
19061;BMP280;9663;48.996;8.334;2022-10-30T15:49:31;100518.34;;;25.81
19061;BMP280;9663;48.996;8.334;2022-10-30T15:52:14;100517.81;;;25.62
19061;BMP280;9663;48.996;8.334;2022-10-30T15:54:43;100521.31;;;25.47
19061;BMP280;9663;48.996;8.334;2022-10-30T15:57:42;100514.22;;;25.22
19061;BMP280;9663;48.996;8.334;2022-10-30T16:00:22;100513.38;;;25.07
19061;BMP280;9663;48.996;8.334;2022-10-30T16:03:06;100514.53;;;24.88
19061;BMP280;9663;48.996;8.334;2022-10-30T16:05:38;100520.78;;;24.70
19061;BMP280;9663;48.996;8.334;2022-10-30T16:08:18;100523.47;;;24.53
19061;BMP280;9663;48.996;8.334;2022-10-30T16:10:45;100513.16;;;24.38
19061;BMP280;9663;48.996;8.334;2022-10-30T16:13:21;100520.06;;;24.22
19061;BMP280;9663;48.996;8.334;2022-10-30T16:15:48;100510.53;;;24.07
19061;BMP280;9663;48.996;8.334;2022-10-30T16:18:29;100521.75;;;23.93
19061;BMP280;9663;48.996;8.334;2022-10-30T16:21:02;100519.16;;;23.77
19061;BMP280;9663;48.996;8.334;2022-10-30T16:23:41;100517.38;;;23.62
19061;BMP280;9663;48.996;8.334;2022-10-30T16:26:33;100522.56;;;23.46
19061;BMP280;9663;48.996;8.334;2022-10-30T16:31:38;100516.81;;;23.24
19061;BMP280;9663;48.996;8.334;2022-10-30T16:34:14;100515.63;;;23.14
19061;BMP280;9663;48.996;8.334;2022-10-30T16:36:43;100519.50;;;23.06
19061;BMP280;9663;48.996;8.334;2022-10-30T16:39:15;100524.91;;;23.01
19061;BMP280;9663;48.996;8.334;2022-10-30T16:41:43;100515.78;;;22.94
19061;BMP280;9663;48.996;8.334;2022-10-30T16:44:18;100518.66;;;22.88
19061;BMP280;9663;48.996;8.334;2022-10-30T16:47:20;100515.09;;;22.74
19061;BMP280;9663;48.996;8.334;2022-10-30T16:49:51;100520.41;;;22.71
19061;BMP280;9663;48.996;8.334;2022-10-30T16:52:25;100512.94;;;22.65
19061;BMP280;9663;48.996;8.334;2022-10-30T16:55:04;100519.31;;;22.58
19061;BMP280;9663;48.996;8.334;2022-10-30T16:57:39;100520.53;;;22.51